sensor_id;sensor_type;location;lat;lon;timestamp;P1;durP1;ratioP1;P2;durP2;ratioP2
16393;SDS011;8306;51.128;4.476;2023-07-28T00:02:15;5.17;;;4.70;;
16393;SDS011;8306;51.128;4.476;2023-07-28T00:04:42;4.70;;;4.27;;
16393;SDS011;8306;51.128;4.476;2023-07-28T00:07:08;4.80;;;4.50;;
16393;SDS011;8306;51.128;4.476;2023-07-28T00:09:35;4.80;;;4.43;;
16393;SDS011;8306;51.128;4.476;2023-07-28T00:12:01;4.50;;;4.10;;
16393;SDS011;8306;51.128;4.476;2023-07-28T00:14:28;4.93;;;4.63;;
16393;SDS011;8306;51.128;4.476;2023-07-28T00:16:55;5.03;;;4.63;;
16393;SDS011;8306;51.128;4.476;2023-07-28T00:19:21;5.53;;;5.00;;
16393;SDS011;8306;51.128;4.476;2023-07-28T00:21:48;4.17;;;3.87;;
16393;SDS011;8306;51.128;4.476;2023-07-28T00:24:14;5.03;;;4.63;;
16393;SDS011;8306;51.128;4.476;2023-07-28T00:26:40;4.17;;;3.87;;
16393;SDS011;8306;51.128;4.476;2023-07-28T00:29:07;4.20;;;3.90;;
16393;SDS011;8306;51.128;4.476;2023-07-28T00:31:33;3.70;;;3.50;;
16393;SDS011;8306;51.128;4.476;2023-07-28T00:34:01;3.93;;;3.73;;
16393;SDS011;8306;51.128;4.476;2023-07-28T00:36:26;4.93;;;4.63;;
16393;SDS011;8306;51.128;4.476;2023-07-28T00:38:53;5.03;;;4.63;;
16393;SDS011;8306;51.128;4.476;2023-07-28T00:41:20;4.53;;;4.23;;
16393;SDS011;8306;51.128;4.476;2023-07-28T00:43:46;5.07;;;4.53;;
16393;SDS011;8306;51.128;4.476;2023-07-28T00:46:13;4.53;;;4.20;;
16393;SDS011;8306;51.128;4.476;2023-07-28T00:48:39;6.40;;;6.00;;
16393;SDS011;8306;51.128;4.476;2023-07-28T00:51:06;3.90;;;3.70;;
16393;SDS011;8306;51.128;4.476;2023-07-28T00:53:32;4.60;;;4.30;;
16393;SDS011;8306;51.128;4.476;2023-07-28T00:55:59;4.13;;;3.70;;
16393;SDS011;8306;51.128;4.476;2023-07-28T00:58:25;4.23;;;3.97;;
16393;SDS011;8306;51.128;4.476;2023-07-28T01:00:51;4.20;;;3.87;;
16393;SDS011;8306;51.128;4.476;2023-07-28T01:03:18;4.50;;;4.20;;
16393;SDS011;8306;51.128;4.476;2023-07-28T01:09:09;5.30;;;5.00;;
16393;SDS011;8306;51.128;4.476;2023-07-28T01:11:11;5.43;;;5.03;;
16393;SDS011;8306;51.128;4.476;2023-07-28T01:13:37;5.53;;;5.13;;
16393;SDS011;8306;51.128;4.476;2023-07-28T01:16:04;4.97;;;4.57;;
16393;SDS011;8306;51.128;4.476;2023-07-28T01:18:30;6.13;;;5.53;;
16393;SDS011;8306;51.128;4.476;2023-07-28T01:20:57;5.57;;;5.17;;
16393;SDS011;8306;51.128;4.476;2023-07-28T01:23:34;6.53;;;6.00;;
16393;SDS011;8306;51.128;4.476;2023-07-28T01:26:06;5.90;;;5.50;;
16393;SDS011;8306;51.128;4.476;2023-07-28T01:28:27;6.47;;;5.87;;
16393;SDS011;8306;51.128;4.476;2023-07-28T01:30:54;5.90;;;5.50;;
16393;SDS011;8306;51.128;4.476;2023-07-28T01:33:20;5.07;;;4.67;;
16393;SDS011;8306;51.128;4.476;2023-07-28T01:35:47;5.77;;;5.27;;
16393;SDS011;8306;51.128;4.476;2023-07-28T01:38:13;6.97;;;6.33;;
16393;SDS011;8306;51.128;4.476;2023-07-28T01:40:40;5.13;;;4.83;;
16393;SDS011;8306;51.128;4.476;2023-07-28T01:43:06;5.30;;;4.90;;
16393;SDS011;8306;51.128;4.476;2023-07-28T01:45:33;5.27;;;4.90;;
16393;SDS011;8306;51.128;4.476;2023-07-28T01:47:59;5.77;;;5.30;;
16393;SDS011;8306;51.128;4.476;2023-07-28T01:50:26;5.67;;;5.27;;
16393;SDS011;8306;51.128;4.476;2023-07-28T01:52:52;4.27;;;3.97;;
16393;SDS011;8306;51.128;4.476;2023-07-28T01:55:19;3.80;;;3.60;;
16393;SDS011;8306;51.128;4.476;2023-07-28T01:57:56;4.73;;;3.97;;
16393;SDS011;8306;51.128;4.476;2023-07-28T02:00:18;4.10;;;3.90;;
16393;SDS011;8306;51.128;4.476;2023-07-28T02:02:44;4.67;;;4.37;;
16393;SDS011;8306;51.128;4.476;2023-07-28T02:05:11;3.60;;;3.37;;
16393;SDS011;8306;51.128;4.476;2023-07-28T02:07:37;4.50;;;4.13;;
16393;SDS011;8306;51.128;4.476;2023-07-28T02:10:04;4.70;;;4.30;;
16393;SDS011;8306;51.128;4.476;2023-07-28T02:12:30;4.93;;;4.63;;
16393;SDS011;8306;51.128;4.476;2023-07-28T02:14:57;4.40;;;4.20;;
16393;SDS011;8306;51.128;4.476;2023-07-28T02:17:23;3.30;;;3.10;;
16393;SDS011;8306;51.128;4.476;2023-07-28T02:19:50;4.57;;;4.27;;
16393;SDS011;8306;51.128;4.476;2023-07-28T02:22:16;4.60;;;4.30;;
16393;SDS011;8306;51.128;4.476;2023-07-28T02:24:42;4.00;;;3.70;;
16393;SDS011;8306;51.128;4.476;2023-07-28T02:27:09;4.50;;;4.20;;
16393;SDS011;8306;51.128;4.476;2023-07-28T02:29:35;4.00;;;3.70;;
16393;SDS011;8306;51.128;4.476;2023-07-28T02:32:02;4.03;;;3.83;;
16393;SDS011;8306;51.128;4.476;2023-07-28T02:34:28;4.37;;;3.97;;
16393;SDS011;8306;51.128;4.476;2023-07-28T02:36:55;3.57;;;3.37;;
16393;SDS011;8306;51.128;4.476;2023-07-28T02:39:21;4.20;;;3.80;;
16393;SDS011;8306;51.128;4.476;2023-07-28T02:41:48;3.40;;;3.10;;
16393;SDS011;8306;51.128;4.476;2023-07-28T02:44:14;4.67;;;3.00;;
16393;SDS011;8306;51.128;4.476;2023-07-28T02:46:41;3.17;;;2.97;;
16393;SDS011;8306;51.128;4.476;2023-07-28T02:49:07;2.80;;;2.60;;
16393;SDS011;8306;51.128;4.476;2023-07-28T02:51:34;2.70;;;2.50;;
16393;SDS011;8306;51.128;4.476;2023-07-28T02:54:00;2.90;;;2.70;;
16393;SDS011;8306;51.128;4.476;2023-07-28T02:56:27;3.03;;;2.73;;
16393;SDS011;8306;51.128;4.476;2023-07-28T02:58:53;3.13;;;2.93;;
16393;SDS011;8306;51.128;4.476;2023-07-28T03:01:20;3.10;;;2.80;;
16393;SDS011;8306;51.128;4.476;2023-07-28T03:03:46;4.03;;;2.90;;
16393;SDS011;8306;51.128;4.476;2023-07-28T03:06:13;2.73;;;2.53;;
16393;SDS011;8306;51.128;4.476;2023-07-28T03:08:39;3.70;;;3.40;;
16393;SDS011;8306;51.128;4.476;2023-07-28T03:11:06;3.43;;;3.07;;
16393;SDS011;8306;51.128;4.476;2023-07-28T03:13:32;3.27;;;2.97;;
16393;SDS011;8306;51.128;4.476;2023-07-28T03:15:59;3.03;;;2.83;;
16393;SDS011;8306;51.128;4.476;2023-07-28T03:18:25;2.40;;;2.20;;
16393;SDS011;8306;51.128;4.476;2023-07-28T03:20:51;3.20;;;2.77;;
16393;SDS011;8306;51.128;4.476;2023-07-28T03:23:18;2.80;;;2.60;;
16393;SDS011;8306;51.128;4.476;2023-07-28T03:25:44;2.80;;;2.40;;
16393;SDS011;8306;51.128;4.476;2023-07-28T03:28:11;2.20;;;2.10;;
16393;SDS011;8306;51.128;4.476;2023-07-28T03:30:37;3.20;;;2.70;;
16393;SDS011;8306;51.128;4.476;2023-07-28T03:33:04;2.20;;;2.10;;
16393;SDS011;8306;51.128;4.476;2023-07-28T03:35:30;2.80;;;2.00;;
16393;SDS011;8306;51.128;4.476;2023-07-28T03:37:57;2.53;;;2.33;;
16393;SDS011;8306;51.128;4.476;2023-07-28T03:40:23;2.63;;;2.10;;
16393;SDS011;8306;51.128;4.476;2023-07-28T03:42:50;3.03;;;2.67;;
16393;SDS011;8306;51.128;4.476;2023-07-28T03:45:16;3.43;;;2.00;;
16393;SDS011;8306;51.128;4.476;2023-07-28T03:47:43;2.20;;;2.07;;
16393;SDS011;8306;51.128;4.476;2023-07-28T03:50:09;2.13;;;2.03;;
16393;SDS011;8306;51.128;4.476;2023-07-28T03:52:36;2.40;;;2.20;;
16393;SDS011;8306;51.128;4.476;2023-07-28T03:55:02;2.07;;;1.97;;
16393;SDS011;8306;51.128;4.476;2023-07-28T03:57:29;2.57;;;2.20;;
16393;SDS011;8306;51.128;4.476;2023-07-28T03:59:55;2.60;;;2.40;;
16393;SDS011;8306;51.128;4.476;2023-07-28T04:02:22;1.83;;;1.73;;
16393;SDS011;8306;51.128;4.476;2023-07-28T04:04:53;2.93;;;1.83;;
16393;SDS011;8306;51.128;4.476;2023-07-28T04:07:15;1.47;;;1.37;;
16393;SDS011;8306;51.128;4.476;2023-07-28T04:09:41;2.07;;;1.97;;
16393;SDS011;8306;51.128;4.476;2023-07-28T04:12:08;2.07;;;1.90;;
16393;SDS011;8306;51.128;4.476;2023-07-28T04:14:34;2.00;;;1.90;;
16393;SDS011;8306;51.128;4.476;2023-07-28T04:17:00;4.40;;;2.00;;
16393;SDS011;8306;51.128;4.476;2023-07-28T04:19:27;2.80;;;2.60;;
16393;SDS011;8306;51.128;4.476;2023-07-28T04:21:53;2.53;;;2.33;;
16393;SDS011;8306;51.128;4.476;2023-07-28T04:24:20;2.47;;;2.27;;
16393;SDS011;8306;51.128;4.476;2023-07-28T04:26:46;1.80;;;1.73;;
16393;SDS011;8306;51.128;4.476;2023-07-28T04:29:13;2.00;;;1.90;;
16393;SDS011;8306;51.128;4.476;2023-07-28T04:31:39;1.80;;;1.70;;
16393;SDS011;8306;51.128;4.476;2023-07-28T04:34:06;1.83;;;1.70;;
16393;SDS011;8306;51.128;4.476;2023-07-28T04:36:32;1.57;;;1.47;;
16393;SDS011;8306;51.128;4.476;2023-07-28T04:38:59;1.60;;;1.50;;
16393;SDS011;8306;51.128;4.476;2023-07-28T04:41:25;1.50;;;1.40;;
16393;SDS011;8306;51.128;4.476;2023-07-28T04:43:52;2.30;;;1.70;;
16393;SDS011;8306;51.128;4.476;2023-07-28T04:46:18;1.60;;;1.50;;
16393;SDS011;8306;51.128;4.476;2023-07-28T04:48:45;1.27;;;1.27;;
16393;SDS011;8306;51.128;4.476;2023-07-28T04:51:11;1.50;;;1.40;;
16393;SDS011;8306;51.128;4.476;2023-07-28T04:53:38;2.40;;;1.30;;
16393;SDS011;8306;51.128;4.476;2023-07-28T04:56:04;1.60;;;1.20;;
16393;SDS011;8306;51.128;4.476;2023-07-28T04:58:31;1.90;;;1.80;;
16393;SDS011;8306;51.128;4.476;2023-07-28T05:00:57;1.70;;;1.60;;
16393;SDS011;8306;51.128;4.476;2023-07-28T05:03:24;1.70;;;1.57;;
16393;SDS011;8306;51.128;4.476;2023-07-28T05:05:50;2.03;;;1.80;;
16393;SDS011;8306;51.128;4.476;2023-07-28T05:08:17;1.83;;;1.73;;
16393;SDS011;8306;51.128;4.476;2023-07-28T05:10:43;2.00;;;1.90;;
16393;SDS011;8306;51.128;4.476;2023-07-28T05:13:10;1.90;;;1.80;;
16393;SDS011;8306;51.128;4.476;2023-07-28T05:15:36;2.87;;;2.20;;
16393;SDS011;8306;51.128;4.476;2023-07-28T05:18:02;2.50;;;2.30;;
16393;SDS011;8306;51.128;4.476;2023-07-28T05:20:29;3.83;;;1.90;;
16393;SDS011;8306;51.128;4.476;2023-07-28T05:22:55;1.70;;;1.60;;
16393;SDS011;8306;51.128;4.476;2023-07-28T05:25:22;2.10;;;2.00;;
16393;SDS011;8306;51.128;4.476;2023-07-28T05:27:48;1.83;;;1.73;;
16393;SDS011;8306;51.128;4.476;2023-07-28T05:30:15;1.87;;;1.60;;
16393;SDS011;8306;51.128;4.476;2023-07-28T05:32:41;1.70;;;1.60;;
16393;SDS011;8306;51.128;4.476;2023-07-28T05:35:08;1.70;;;1.60;;
16393;SDS011;8306;51.128;4.476;2023-07-28T05:37:34;1.50;;;1.40;;
16393;SDS011;8306;51.128;4.476;2023-07-28T05:40:01;1.37;;;1.13;;
16393;SDS011;8306;51.128;4.476;2023-07-28T05:42:27;1.20;;;1.20;;
16393;SDS011;8306;51.128;4.476;2023-07-28T05:44:54;1.50;;;1.40;;
16393;SDS011;8306;51.128;4.476;2023-07-28T05:47:20;3.17;;;1.50;;
16393;SDS011;8306;51.128;4.476;2023-07-28T05:49:47;1.50;;;1.40;;
16393;SDS011;8306;51.128;4.476;2023-07-28T05:52:13;1.40;;;1.30;;
16393;SDS011;8306;51.128;4.476;2023-07-28T05:54:40;1.37;;;1.27;;
16393;SDS011;8306;51.128;4.476;2023-07-28T05:57:06;1.70;;;1.30;;
16393;SDS011;8306;51.128;4.476;2023-07-28T05:59:33;2.10;;;1.40;;
16393;SDS011;8306;51.128;4.476;2023-07-28T06:01:59;1.87;;;1.40;;
16393;SDS011;8306;51.128;4.476;2023-07-28T06:04:26;1.70;;;1.60;;
16393;SDS011;8306;51.128;4.476;2023-07-28T06:06:52;1.80;;;1.70;;
16393;SDS011;8306;51.128;4.476;2023-07-28T06:09:21;2.20;;;2.10;;
16393;SDS011;8306;51.128;4.476;2023-07-28T06:11:45;1.93;;;1.80;;
16393;SDS011;8306;51.128;4.476;2023-07-28T06:14:11;8.53;;;1.90;;
16393;SDS011;8306;51.128;4.476;2023-07-28T06:16:38;2.33;;;2.10;;
16393;SDS011;8306;51.128;4.476;2023-07-28T06:19:04;2.00;;;1.90;;
16393;SDS011;8306;51.128;4.476;2023-07-28T06:21:31;1.83;;;1.73;;
16393;SDS011;8306;51.128;4.476;2023-07-28T06:24:06;2.60;;;1.50;;
16393;SDS011;8306;51.128;4.476;2023-07-28T06:26:24;1.87;;;1.77;;
16393;SDS011;8306;51.128;4.476;2023-07-28T06:28:50;2.97;;;1.67;;
16393;SDS011;8306;51.128;4.476;2023-07-28T06:31:17;3.43;;;1.60;;
16393;SDS011;8306;51.128;4.476;2023-07-28T06:33:43;1.57;;;1.47;;
16393;SDS011;8306;51.128;4.476;2023-07-28T06:36:10;1.80;;;1.47;;
16393;SDS011;8306;51.128;4.476;2023-07-28T06:38:36;2.80;;;1.50;;
16393;SDS011;8306;51.128;4.476;2023-07-28T06:41:03;1.73;;;1.63;;
16393;SDS011;8306;51.128;4.476;2023-07-28T06:43:29;4.50;;;1.90;;
16393;SDS011;8306;51.128;4.476;2023-07-28T06:45:56;1.40;;;1.30;;
16393;SDS011;8306;51.128;4.476;2023-07-28T06:48:22;1.70;;;1.40;;
16393;SDS011;8306;51.128;4.476;2023-07-28T06:50:49;1.13;;;1.03;;
16393;SDS011;8306;51.128;4.476;2023-07-28T06:53:15;0.93;;;0.93;;
16393;SDS011;8306;51.128;4.476;2023-07-28T06:55:43;0.90;;;0.80;;
16393;SDS011;8306;51.128;4.476;2023-07-28T06:58:08;0.70;;;0.70;;
16393;SDS011;8306;51.128;4.476;2023-07-28T07:00:35;2.00;;;0.70;;
16393;SDS011;8306;51.128;4.476;2023-07-28T07:03:01;3.30;;;1.13;;
16393;SDS011;8306;51.128;4.476;2023-07-28T07:05:28;1.00;;;1.00;;
16393;SDS011;8306;51.128;4.476;2023-07-28T07:07:54;0.70;;;0.70;;
16393;SDS011;8306;51.128;4.476;2023-07-28T07:10:21;0.60;;;0.60;;
16393;SDS011;8306;51.128;4.476;2023-07-28T07:12:47;0.60;;;0.60;;
16393;SDS011;8306;51.128;4.476;2023-07-28T07:15:13;0.53;;;0.50;;
16393;SDS011;8306;51.128;4.476;2023-07-28T07:17:40;0.60;;;0.60;;
16393;SDS011;8306;51.128;4.476;2023-07-28T07:20:06;0.30;;;0.30;;
16393;SDS011;8306;51.128;4.476;2023-07-28T07:22:33;0.40;;;0.40;;
16393;SDS011;8306;51.128;4.476;2023-07-28T07:24:59;0.47;;;0.40;;
16393;SDS011;8306;51.128;4.476;2023-07-28T07:27:26;0.40;;;0.40;;
16393;SDS011;8306;51.128;4.476;2023-07-28T07:29:52;0.80;;;0.50;;
16393;SDS011;8306;51.128;4.476;2023-07-28T07:32:19;0.63;;;0.50;;
16393;SDS011;8306;51.128;4.476;2023-07-28T07:34:45;0.80;;;0.50;;
16393;SDS011;8306;51.128;4.476;2023-07-28T07:37:12;3.60;;;0.50;;
16393;SDS011;8306;51.128;4.476;2023-07-28T07:39:38;0.50;;;0.50;;
16393;SDS011;8306;51.128;4.476;2023-07-28T07:42:05;0.50;;;0.50;;
16393;SDS011;8306;51.128;4.476;2023-07-28T07:44:31;0.70;;;0.70;;
16393;SDS011;8306;51.128;4.476;2023-07-28T07:47:00;0.50;;;0.50;;
16393;SDS011;8306;51.128;4.476;2023-07-28T07:49:24;0.80;;;0.40;;
16393;SDS011;8306;51.128;4.476;2023-07-28T07:51:51;0.77;;;0.30;;
16393;SDS011;8306;51.128;4.476;2023-07-28T07:54:17;0.40;;;0.40;;
16393;SDS011;8306;51.128;4.476;2023-07-28T07:56:44;0.40;;;0.30;;
16393;SDS011;8306;51.128;4.476;2023-07-28T07:59:10;1.00;;;0.40;;
16393;SDS011;8306;51.128;4.476;2023-07-28T08:01:37;0.40;;;0.40;;
16393;SDS011;8306;51.128;4.476;2023-07-28T08:04:03;0.40;;;0.40;;
16393;SDS011;8306;51.128;4.476;2023-07-28T08:06:30;0.43;;;0.30;;
16393;SDS011;8306;51.128;4.476;2023-07-28T08:08:56;0.30;;;0.30;;
16393;SDS011;8306;51.128;4.476;2023-07-28T08:11:23;0.87;;;0.43;;
16393;SDS011;8306;51.128;4.476;2023-07-28T08:13:49;0.30;;;0.30;;
16393;SDS011;8306;51.128;4.476;2023-07-28T08:16:16;0.87;;;0.40;;
16393;SDS011;8306;51.128;4.476;2023-07-28T08:18:42;0.40;;;0.30;;
16393;SDS011;8306;51.128;4.476;2023-07-28T08:21:09;0.60;;;0.30;;
16393;SDS011;8306;51.128;4.476;2023-07-28T08:23:35;0.60;;;0.50;;
16393;SDS011;8306;51.128;4.476;2023-07-28T08:26:01;0.70;;;0.30;;
16393;SDS011;8306;51.128;4.476;2023-07-28T08:28:28;0.30;;;0.30;;
16393;SDS011;8306;51.128;4.476;2023-07-28T08:30:55;0.40;;;0.40;;
16393;SDS011;8306;51.128;4.476;2023-07-28T08:33:21;0.40;;;0.40;;
16393;SDS011;8306;51.128;4.476;2023-07-28T08:35:47;0.80;;;0.50;;
16393;SDS011;8306;51.128;4.476;2023-07-28T08:38:14;0.40;;;0.40;;
16393;SDS011;8306;51.128;4.476;2023-07-28T08:40:40;0.73;;;0.60;;
16393;SDS011;8306;51.128;4.476;2023-07-28T08:43:07;0.40;;;0.40;;
16393;SDS011;8306;51.128;4.476;2023-07-28T08:45:33;0.60;;;0.60;;
16393;SDS011;8306;51.128;4.476;2023-07-28T08:48:00;0.60;;;0.50;;
16393;SDS011;8306;51.128;4.476;2023-07-28T08:50:26;0.50;;;0.50;;
16393;SDS011;8306;51.128;4.476;2023-07-28T08:52:53;0.40;;;0.40;;
16393;SDS011;8306;51.128;4.476;2023-07-28T08:55:19;0.53;;;0.47;;
16393;SDS011;8306;51.128;4.476;2023-07-28T08:57:46;0.97;;;0.50;;
16393;SDS011;8306;51.128;4.476;2023-07-28T09:00:12;0.63;;;0.50;;
16393;SDS011;8306;51.128;4.476;2023-07-28T09:02:39;0.60;;;0.50;;
16393;SDS011;8306;51.128;4.476;2023-07-28T09:05:05;0.67;;;0.60;;
16393;SDS011;8306;51.128;4.476;2023-07-28T09:07:35;1.53;;;0.60;;
16393;SDS011;8306;51.128;4.476;2023-07-28T09:10:01;2.73;;;0.53;;
16393;SDS011;8306;51.128;4.476;2023-07-28T09:12:27;0.87;;;0.80;;
16393;SDS011;8306;51.128;4.476;2023-07-28T09:14:57;0.87;;;0.60;;
16393;SDS011;8306;51.128;4.476;2023-07-28T09:17:23;2.00;;;0.60;;
16393;SDS011;8306;51.128;4.476;2023-07-28T09:19:53;1.27;;;0.50;;
16393;SDS011;8306;51.128;4.476;2023-07-28T09:22:19;1.33;;;0.60;;
16393;SDS011;8306;51.128;4.476;2023-07-28T09:24:46;0.60;;;0.60;;
16393;SDS011;8306;51.128;4.476;2023-07-28T09:27:25;1.40;;;0.50;;
16393;SDS011;8306;51.128;4.476;2023-07-28T09:29:51;2.53;;;0.60;;
16393;SDS011;8306;51.128;4.476;2023-07-28T09:32:29;0.60;;;0.50;;
16393;SDS011;8306;51.128;4.476;2023-07-28T09:35:10;0.67;;;0.50;;
16393;SDS011;8306;51.128;4.476;2023-07-28T09:37:39;1.13;;;0.50;;
16393;SDS011;8306;51.128;4.476;2023-07-28T09:40:08;0.53;;;0.40;;
16393;SDS011;8306;51.128;4.476;2023-07-28T09:42:34;0.60;;;0.60;;
16393;SDS011;8306;51.128;4.476;2023-07-28T09:45:01;0.47;;;0.47;;
16393;SDS011;8306;51.128;4.476;2023-07-28T09:47:28;0.60;;;0.60;;
16393;SDS011;8306;51.128;4.476;2023-07-28T09:49:54;0.50;;;0.47;;
16393;SDS011;8306;51.128;4.476;2023-07-28T09:52:20;0.62;;;0.60;;
16393;SDS011;8306;51.128;4.476;2023-07-28T09:54:47;0.85;;;0.52;;
16393;SDS011;8306;51.128;4.476;2023-07-28T09:57:13;0.82;;;0.50;;
16393;SDS011;8306;51.128;4.476;2023-07-28T09:59:40;1.10;;;0.35;;
16393;SDS011;8306;51.128;4.476;2023-07-28T10:02:07;0.50;;;0.50;;
16393;SDS011;8306;51.128;4.476;2023-07-28T10:04:33;0.85;;;0.77;;
16393;SDS011;8306;51.128;4.476;2023-07-28T10:06:59;0.75;;;0.35;;
16393;SDS011;8306;51.128;4.476;2023-07-28T10:09:26;2.28;;;0.30;;
16393;SDS011;8306;51.128;4.476;2023-07-28T10:11:53;0.83;;;0.60;;
16393;SDS011;8306;51.128;4.476;2023-07-28T10:14:32;0.40;;;0.40;;
16393;SDS011;8306;51.128;4.476;2023-07-28T10:16:57;0.97;;;0.50;;
16393;SDS011;8306;51.128;4.476;2023-07-28T10:19:26;1.80;;;1.53;;
16393;SDS011;8306;51.128;4.476;2023-07-28T10:21:58;1.17;;;0.50;;
16393;SDS011;8306;51.128;4.476;2023-07-28T10:27:31;0.50;;;0.50;;
16393;SDS011;8306;51.128;4.476;2023-07-28T10:29:59;0.60;;;0.60;;
16393;SDS011;8306;51.128;4.476;2023-07-28T10:32:26;0.90;;;0.63;;
16393;SDS011;8306;51.128;4.476;2023-07-28T10:35:01;0.67;;;0.67;;
16393;SDS011;8306;51.128;4.476;2023-07-28T10:37:27;0.70;;;0.70;;
16393;SDS011;8306;51.128;4.476;2023-07-28T10:42:47;0.50;;;0.50;;
16393;SDS011;8306;51.128;4.476;2023-07-28T10:45:13;0.93;;;0.70;;
16393;SDS011;8306;51.128;4.476;2023-07-28T10:47:40;1.73;;;0.87;;
16393;SDS011;8306;51.128;4.476;2023-07-28T10:50:09;0.83;;;0.80;;
16393;SDS011;8306;51.128;4.476;2023-07-28T10:52:39;0.80;;;0.70;;
16393;SDS011;8306;51.128;4.476;2023-07-28T10:55:05;0.60;;;0.60;;
16393;SDS011;8306;51.128;4.476;2023-07-28T10:57:31;1.23;;;0.70;;
16393;SDS011;8306;51.128;4.476;2023-07-28T11:00:00;1.47;;;1.00;;
16393;SDS011;8306;51.128;4.476;2023-07-28T11:02:27;1.43;;;0.70;;
16393;SDS011;8306;51.128;4.476;2023-07-28T11:04:53;3.63;;;0.80;;
16393;SDS011;8306;51.128;4.476;2023-07-28T11:07:20;0.70;;;0.70;;
16393;SDS011;8306;51.128;4.476;2023-07-28T11:09:46;1.07;;;0.87;;
16393;SDS011;8306;51.128;4.476;2023-07-28T11:12:13;0.80;;;0.73;;
16393;SDS011;8306;51.128;4.476;2023-07-28T11:14:39;1.83;;;1.00;;
16393;SDS011;8306;51.128;4.476;2023-07-28T11:17:06;1.10;;;0.90;;
16393;SDS011;8306;51.128;4.476;2023-07-28T11:19:33;1.73;;;0.90;;
16393;SDS011;8306;51.128;4.476;2023-07-28T11:21:59;1.80;;;0.83;;
16393;SDS011;8306;51.128;4.476;2023-07-28T11:24:26;0.80;;;0.80;;
16393;SDS011;8306;51.128;4.476;2023-07-28T11:26:52;0.60;;;0.60;;
16393;SDS011;8306;51.128;4.476;2023-07-28T11:29:19;1.20;;;0.70;;
16393;SDS011;8306;51.128;4.476;2023-07-28T11:31:45;2.10;;;0.70;;
16393;SDS011;8306;51.128;4.476;2023-07-28T11:34:17;0.60;;;0.47;;
16393;SDS011;8306;51.128;4.476;2023-07-28T11:36:44;0.60;;;0.60;;
16393;SDS011;8306;51.128;4.476;2023-07-28T11:39:10;0.50;;;0.50;;
16393;SDS011;8306;51.128;4.476;2023-07-28T11:41:37;0.83;;;0.70;;
16393;SDS011;8306;51.128;4.476;2023-07-28T11:44:04;0.50;;;0.50;;
16393;SDS011;8306;51.128;4.476;2023-07-28T11:46:36;0.63;;;0.60;;
16393;SDS011;8306;51.128;4.476;2023-07-28T11:49:09;0.63;;;0.40;;
16393;SDS011;8306;51.128;4.476;2023-07-28T11:51:38;0.60;;;0.60;;
16393;SDS011;8306;51.128;4.476;2023-07-28T11:54:03;2.67;;;0.70;;
16393;SDS011;8306;51.128;4.476;2023-07-28T11:56:30;0.80;;;0.60;;
16393;SDS011;8306;51.128;4.476;2023-07-28T11:58:56;0.90;;;0.50;;
16393;SDS011;8306;51.128;4.476;2023-07-28T12:01:23;1.33;;;1.13;;
16393;SDS011;8306;51.128;4.476;2023-07-28T12:03:49;0.80;;;0.80;;
16393;SDS011;8306;51.128;4.476;2023-07-28T12:06:16;0.77;;;0.70;;
16393;SDS011;8306;51.128;4.476;2023-07-28T12:08:42;1.23;;;0.70;;
16393;SDS011;8306;51.128;4.476;2023-07-28T12:11:15;1.05;;;0.50;;
16393;SDS011;8306;51.128;4.476;2023-07-28T12:13:56;0.70;;;0.70;;
16393;SDS011;8306;51.128;4.476;2023-07-28T12:16:30;0.62;;;0.52;;
16393;SDS011;8306;51.128;4.476;2023-07-28T12:18:39;1.00;;;0.50;;
16393;SDS011;8306;51.128;4.476;2023-07-28T12:21:06;0.70;;;0.60;;
16393;SDS011;8306;51.128;4.476;2023-07-28T12:23:32;0.88;;;0.70;;
16393;SDS011;8306;51.128;4.476;2023-07-28T12:25:59;0.80;;;0.80;;
16393;SDS011;8306;51.128;4.476;2023-07-28T12:28:25;1.02;;;0.70;;
16393;SDS011;8306;51.128;4.476;2023-07-28T12:30:52;0.85;;;0.52;;
16393;SDS011;8306;51.128;4.476;2023-07-28T12:33:18;0.57;;;0.57;;
16393;SDS011;8306;51.128;4.476;2023-07-28T12:35:45;0.65;;;0.60;;
16393;SDS011;8306;51.128;4.476;2023-07-28T12:38:11;0.40;;;0.40;;
16393;SDS011;8306;51.128;4.476;2023-07-28T12:40:38;1.17;;;0.73;;
16393;SDS011;8306;51.128;4.476;2023-07-28T12:43:04;1.02;;;0.50;;
16393;SDS011;8306;51.128;4.476;2023-07-28T12:45:31;1.17;;;0.50;;
16393;SDS011;8306;51.128;4.476;2023-07-28T12:47:58;0.53;;;0.53;;
16393;SDS011;8306;51.128;4.476;2023-07-28T12:50:24;0.50;;;0.50;;
16393;SDS011;8306;51.128;4.476;2023-07-28T12:52:50;0.60;;;0.60;;
16393;SDS011;8306;51.128;4.476;2023-07-28T12:55:17;1.42;;;0.50;;
16393;SDS011;8306;51.128;4.476;2023-07-28T12:57:43;0.80;;;0.67;;
16393;SDS011;8306;51.128;4.476;2023-07-28T13:00:10;0.80;;;0.60;;
16393;SDS011;8306;51.128;4.476;2023-07-28T13:02:40;0.70;;;0.70;;
16393;SDS011;8306;51.128;4.476;2023-07-28T13:05:06;0.82;;;0.50;;
16393;SDS011;8306;51.128;4.476;2023-07-28T13:07:32;0.50;;;0.50;;
16393;SDS011;8306;51.128;4.476;2023-07-28T13:09:59;1.57;;;0.60;;
16393;SDS011;8306;51.128;4.476;2023-07-28T13:12:25;0.63;;;0.60;;
16393;SDS011;8306;51.128;4.476;2023-07-28T13:14:52;0.47;;;0.47;;
16393;SDS011;8306;51.128;4.476;2023-07-28T13:17:18;0.50;;;0.50;;
16393;SDS011;8306;51.128;4.476;2023-07-28T13:19:45;0.82;;;0.60;;
16393;SDS011;8306;51.128;4.476;2023-07-28T13:22:11;0.55;;;0.55;;
16393;SDS011;8306;51.128;4.476;2023-07-28T13:24:38;0.77;;;0.60;;
16393;SDS011;8306;51.128;4.476;2023-07-28T13:27:04;1.13;;;0.50;;
16393;SDS011;8306;51.128;4.476;2023-07-28T13:29:31;0.70;;;0.70;;
16393;SDS011;8306;51.128;4.476;2023-07-28T13:31:58;1.17;;;0.80;;
16393;SDS011;8306;51.128;4.476;2023-07-28T13:34:24;0.70;;;0.70;;
16393;SDS011;8306;51.128;4.476;2023-07-28T13:36:50;1.57;;;0.70;;
16393;SDS011;8306;51.128;4.476;2023-07-28T13:39:17;0.60;;;0.60;;
16393;SDS011;8306;51.128;4.476;2023-07-28T13:41:43;1.60;;;0.80;;
16393;SDS011;8306;51.128;4.476;2023-07-28T13:44:09;0.60;;;0.60;;
16393;SDS011;8306;51.128;4.476;2023-07-28T13:46:36;0.90;;;0.57;;
16393;SDS011;8306;51.128;4.476;2023-07-28T13:49:02;0.73;;;0.63;;
16393;SDS011;8306;51.128;4.476;2023-07-28T13:51:29;1.10;;;0.93;;
16393;SDS011;8306;51.128;4.476;2023-07-28T13:53:55;0.80;;;0.67;;
16393;SDS011;8306;51.128;4.476;2023-07-28T13:56:22;1.37;;;0.80;;
16393;SDS011;8306;51.128;4.476;2023-07-28T13:58:48;0.53;;;0.53;;
16393;SDS011;8306;51.128;4.476;2023-07-28T14:01:15;0.63;;;0.60;;
16393;SDS011;8306;51.128;4.476;2023-07-28T14:03:41;0.60;;;0.60;;
16393;SDS011;8306;51.128;4.476;2023-07-28T14:06:08;0.70;;;0.70;;
16393;SDS011;8306;51.128;4.476;2023-07-28T14:08:34;0.70;;;0.70;;
16393;SDS011;8306;51.128;4.476;2023-07-28T14:11:01;0.80;;;0.75;;
16393;SDS011;8306;51.128;4.476;2023-07-28T14:13:27;2.47;;;0.70;;
16393;SDS011;8306;51.128;4.476;2023-07-28T14:15:54;0.87;;;0.80;;
16393;SDS011;8306;51.128;4.476;2023-07-28T14:18:20;0.93;;;0.90;;
16393;SDS011;8306;51.128;4.476;2023-07-28T14:20:47;0.80;;;0.80;;
16393;SDS011;8306;51.128;4.476;2023-07-28T14:23:20;0.70;;;0.70;;
16393;SDS011;8306;51.128;4.476;2023-07-28T14:25:46;0.88;;;0.70;;
16393;SDS011;8306;51.128;4.476;2023-07-28T14:28:12;0.95;;;0.50;;
16393;SDS011;8306;51.128;4.476;2023-07-28T14:30:38;0.70;;;0.70;;
16393;SDS011;8306;51.128;4.476;2023-07-28T14:33:05;1.17;;;0.70;;
16393;SDS011;8306;51.128;4.476;2023-07-28T14:35:31;0.60;;;0.60;;
16393;SDS011;8306;51.128;4.476;2023-07-28T14:37:58;0.77;;;0.77;;
16393;SDS011;8306;51.128;4.476;2023-07-28T14:40:24;1.17;;;0.83;;
16393;SDS011;8306;51.128;4.476;2023-07-28T14:42:51;0.73;;;0.73;;
16393;SDS011;8306;51.128;4.476;2023-07-28T14:45:17;0.90;;;0.80;;
16393;SDS011;8306;51.128;4.476;2023-07-28T14:47:44;1.00;;;0.70;;
16393;SDS011;8306;51.128;4.476;2023-07-28T14:50:10;1.70;;;0.93;;
16393;SDS011;8306;51.128;4.476;2023-07-28T14:52:38;1.67;;;0.80;;
16393;SDS011;8306;51.128;4.476;2023-07-28T14:55:03;1.37;;;0.80;;
16393;SDS011;8306;51.128;4.476;2023-07-28T14:57:30;0.87;;;0.87;;
16393;SDS011;8306;51.128;4.476;2023-07-28T14:59:56;1.20;;;0.73;;
16393;SDS011;8306;51.128;4.476;2023-07-28T15:02:23;0.67;;;0.67;;
16393;SDS011;8306;51.128;4.476;2023-07-28T15:04:49;0.70;;;0.70;;
16393;SDS011;8306;51.128;4.476;2023-07-28T15:07:16;0.90;;;0.90;;